This is the latest recevied weather packets stored in our database for station/object BMCB-35. If no packets are shown the sender has not sent any weather packets the latest 10 day(s).
| Time | Temp. | Humidity | Pressure | Rain* | Wind** | Luminosity | Snow |
|---|---|---|---|---|---|---|---|
| 1777721430 | 22.78° C | 50% | 1019 hPa | 0 mm | - | 734 W/m² | - |
| 1777719037 | 21.67° C | 51% | 1019.5 hPa | 0 mm | - | 723 W/m² | - |
| 1777716013 | 20° C | 52% | 1020.3 hPa | 0 mm | - | 673 W/m² | - |
| 1777714810 | 19.44° C | 53% | 1020.6 hPa | 0 mm | - | 645 W/m² | - |
| 1777711213 | 16.11° C | 54% | 1021.3 hPa | 0 mm | - | 425 W/m² | - |
| 1777707633 | 13.33° C | 59% | 1022.1 hPa | 0 mm | - | 344 W/m² | - |
| 1777700443 | 11.11° C | 66% | 1022.5 hPa | 0 mm | - | 157 W/m² | - |
| 1777700438 | 10.56° C | 69% | 1022.7 hPa | 0 mm | - | 98 W/m² | - |
| 1777696824 | 8.33° C | 75% | 1022.6 hPa | 0 mm | - | 12 W/m² | - |
| 1777695605 | 8.33° C | 74% | 1022.5 hPa | 0 mm | - | 0 W/m² | - |
| 1777695037 | 8.33° C | 74% | 1022.5 hPa | 0 mm | - | 0 W/m² | - |
| 1777695032 | 8.33° C | 73% | 1022.4 hPa | 0 mm | - | 0 W/m² | - |
| 1777692011 | 8.89° C | 72% | 1022.5 hPa | 0 mm | - | 0 W/m² | - |
| 1777691443 | 8.89° C | 72% | 1022.5 hPa | 0 mm | - | 0 W/m² | - |
| 1777691438 | 8.89° C | 71% | 1022.7 hPa | 0 mm | - | 0 W/m² | - |
| 1777687242 | 9.44° C | 68% | 1022.6 hPa | 0 mm | - | 0 W/m² | - |
| 1777683603 | 10° C | 67% | 1022.8 hPa | 0 mm | - | 0 W/m² | - |
| 1777677610 | 10.56° C | 62% | 1023.1 hPa | 0 mm | - | 0 W/m² | - |
| 1777675220 | 10.56° C | 61% | 1023.1 hPa | 0 mm | - | 0 W/m² | - |
| 1777674047 | 11.11° C | 61% | 1023.2 hPa | 0 mm | - | 0 W/m² | - |
| 1777672211 | 11.67° C | 58% | 1023.2 hPa | 0 mm | - | 0 W/m² | - |
| 1777672210 | 12.22° C | 57% | 1023.2 hPa | 0 mm | - | 0 W/m² | - |
| 1777671605 | 12.22° C | 56% | 1023.2 hPa | 0 mm | - | 0 W/m² | - |
| 1777669210 | 12.78° C | 53% | 1023 hPa | 0 mm | - | 0 W/m² | - |
| 1777666839 | 13.33° C | 52% | 1022.7 hPa | 0 mm | - | 0 W/m² | - |
* Rain latest hour (hover to see other rain measurements)
** Current wind speed in m/s (hover to see current wind gust speed)